Time;durP1;ratioP1;P1;durP2;ratioP2;P2;SDS_P1;SDS_P2;PMS_P1;PMS_P2;Temp;Humidity;BMP_temperature;BMP_pressure;BME280_temperature;BME280_humidity;BME280_pressure;Samples;Min_cycle;Max_cycle;Signal;HPM_P1;HPM_P2
2024/03/19 00:00:20;;;;;;;36.47;15.93;;;7.90;99.90;;;;;;4974109;29;20042;-83
2024/03/19 00:02:47;;;;;;;29.95;15.45;;;6.90;99.90;;;;;;4992918;28;20074;-83
2024/03/19 00:05:14;;;;;;;35.42;15.98;;;7.00;99.90;;;;;;4978730;28;20039;-83
2024/03/19 00:07:41;;;;;;;32.95;16.65;;;7.00;99.90;;;;;;4980709;29;20122;-83
2024/03/19 00:10:08;;;;;;;36.85;16.70;;;7.30;99.90;;;;;;4976573;28;20126;-83
2024/03/19 00:12:34;;;;;;;33.75;16.92;;;7.00;99.90;;;;;;4976932;28;20038;-83
2024/03/19 00:15:01;;;;;;;37.00;17.02;;;7.00;99.90;;;;;;4977009;28;20182;-83
2024/03/19 00:17:28;;;;;;;35.53;16.95;;;7.00;99.90;;;;;;4974807;28;20523;-83
2024/03/19 00:19:54;;;;;;;30.90;15.45;;;7.00;99.90;;;;;;4977218;28;20065;-83
2024/03/19 00:22:22;;;;;;;36.78;17.13;;;7.00;99.90;;;;;;4963114;29;20043;-83
2024/03/19 00:24:49;;;;;;;34.38;17.35;;;7.00;99.90;;;;;;4965276;28;20039;-83
2024/03/19 00:27:16;;;;;;;39.10;16.73;;;7.20;99.90;;;;;;4975207;28;20507;-83
2024/03/19 00:29:42;;;;;;;34.67;17.17;;;7.00;99.90;;;;;;4976742;28;20038;-84
2024/03/19 00:32:09;;;;;;;84.32;20.08;;;7.00;99.90;;;;;;4964703;28;20506;-83
2024/03/19 00:34:36;;;;;;;37.25;16.75;;;7.00;99.90;;;;;;4973188;29;20745;-84
2024/03/19 00:37:03;;;;;;;45.72;18.67;;;7.00;99.90;;;;;;4976424;28;20156;-83
2024/03/19 00:39:30;;;;;;;41.63;18.73;;;7.00;99.90;;;;;;4976408;28;20046;-83
2024/03/19 00:41:57;;;;;;;32.80;16.20;;;7.20;99.90;;;;;;4980002;28;20037;-83
2024/03/19 00:44:24;;;;;;;49.83;17.80;;;7.00;99.90;;;;;;4965465;29;20047;-83
2024/03/19 00:46:50;;;;;;;40.22;17.95;;;7.40;99.90;;;;;;4986096;29;20049;-83
2024/03/19 00:49:17;;;;;;;30.83;17.30;;;7.00;99.90;;;;;;4970764;28;20039;-83
2024/03/19 00:51:44;;;;;;;35.55;17.65;;;6.90;99.90;;;;;;4976569;28;20038;-83
2024/03/19 00:54:11;;;;;;;35.10;16.05;;;7.00;99.90;;;;;;4992136;28;20046;-84
2024/03/19 00:56:38;;;;;;;30.02;16.60;;;7.00;99.90;;;;;;4972669;29;20054;-84
2024/03/19 00:59:04;;;;;;;30.90;15.75;;;7.00;99.90;;;;;;4976312;28;20046;-83
2024/03/19 01:01:31;;;;;;;30.10;16.52;;;7.00;99.90;;;;;;4960204;29;20046;-83
2024/03/19 01:03:58;;;;;;;31.25;16.90;;;7.00;99.90;;;;;;4975520;28;20042;-83
2024/03/19 01:06:25;;;;;;;30.67;16.17;;;7.00;99.90;;;;;;4970275;28;20091;-83
2024/03/19 01:08:52;;;;;;;29.30;16.23;;;7.20;99.90;;;;;;4966727;29;20461;-83
2024/03/19 01:11:19;;;;;;;27.98;16.27;;;7.20;99.90;;;;;;4972055;28;20051;-84
2024/03/19 01:13:45;;;;;;;75.82;17.55;;;7.10;99.90;;;;;;4975909;28;20049;-83
2024/03/19 01:16:12;;;;;;;28.13;15.57;;;6.80;99.90;;;;;;4975411;28;20129;-84
2024/03/19 01:18:40;;;;;;;31.10;15.68;;;6.80;99.90;;;;;;4975582;28;20556;-84
2024/03/19 01:21:06;;;;;;;36.13;16.63;;;6.90;99.90;;;;;;4987905;28;20051;-84
2024/03/19 01:23:34;;;;;;;28.63;15.35;;;6.90;99.90;;;;;;4980968;29;20122;-84
2024/03/19 01:26:02;;;;;;;33.45;16.20;;;6.80;99.90;;;;;;4972519;29;20102;-84
2024/03/19 01:28:29;;;;;;;26.42;15.43;;;6.80;99.90;;;;;;4983715;28;20031;-83
2024/03/19 01:30:56;;;;;;;28.85;15.65;;;6.70;99.90;;;;;;4969466;29;20050;-84
2024/03/19 01:33:22;;;;;;;29.98;15.77;;;6.70;99.90;;;;;;4968894;28;20038;-84
2024/03/19 01:35:49;;;;;;;33.53;16.00;;;6.70;99.90;;;;;;4969242;29;20039;-83
2024/03/19 01:38:16;;;;;;;30.70;16.23;;;6.90;99.90;;;;;;4968829;28;20057;-84
2024/03/19 01:40:46;;;;;;;31.00;15.98;;;6.70;99.90;;;;;;4971144;29;20074;-84
2024/03/19 01:43:15;;;;;;;26.90;14.95;;;7.50;99.90;;;;;;4968639;28;20035;-84
2024/03/19 01:45:43;;;;;;;29.23;15.07;;;6.70;99.90;;;;;;4991255;28;20049;-83
2024/03/19 01:48:10;;;;;;;32.13;14.77;;;6.60;99.90;;;;;;4963022;28;20043;-83
2024/03/19 01:50:37;;;;;;;27.10;15.13;;;7.10;99.90;;;;;;4970603;28;20058;-83
2024/03/19 01:53:05;;;;;;;28.15;14.93;;;6.60;99.90;;;;;;4968917;28;20182;-84
2024/03/19 01:55:32;;;;;;;23.83;13.68;;;6.70;99.90;;;;;;4965738;28;20043;-84
2024/03/19 01:57:59;;;;;;;26.77;15.15;;;6.80;99.90;;;;;;4974896;28;20488;-84
2024/03/19 02:00:26;;;;;;;25.25;13.90;;;6.60;99.90;;;;;;4975357;28;20035;-84
2024/03/19 02:02:52;;;;;;;27.80;14.00;;;7.50;99.90;;;;;;4975138;28;20053;-84
2024/03/19 02:05:20;;;;;;;30.25;14.23;;;6.50;99.90;;;;;;4971232;28;20512;-83
2024/03/19 02:07:46;;;;;;;27.80;15.48;;;6.50;99.90;;;;;;4974525;28;20049;-84
2024/03/19 02:10:13;;;;;;;25.10;14.07;;;6.50;99.90;;;;;;4959394;29;20489;-83
2024/03/19 02:12:40;;;;;;;26.48;14.70;;;6.70;99.90;;;;;;4969440;28;20047;-83
2024/03/19 02:15:07;;;;;;;27.88;15.05;;;6.70;99.90;;;;;;4974969;28;20070;-84
2024/03/19 02:17:33;;;;;;;25.70;14.52;;;6.50;99.90;;;;;;4974767;28;20085;-83
2024/03/19 02:20:00;;;;;;;24.95;13.93;;;6.50;99.90;;;;;;4975116;28;20078;-83
2024/03/19 02:22:27;;;;;;;26.23;14.02;;;6.50;99.90;;;;;;4975034;28;20559;-83
2024/03/19 02:24:54;;;;;;;22.27;13.57;;;6.40;99.90;;;;;;4975247;28;20106;-83
2024/03/19 02:27:21;;;;;;;23.73;13.93;;;6.90;99.90;;;;;;4976839;28;20117;-84
2024/03/19 02:29:48;;;;;;;23.65;13.57;;;6.50;99.90;;;;;;4978970;28;20039;-83
2024/03/19 02:32:14;;;;;;;25.95;13.45;;;6.50;99.90;;;;;;4975927;29;20045;-83
2024/03/19 02:34:41;;;;;;;21.60;13.05;;;6.40;99.90;;;;;;4969714;28;20469;-84
2024/03/19 02:37:07;;;;;;;27.65;13.52;;;6.80;99.90;;;;;;4978714;28;20037;-83
2024/03/19 02:39:34;;;;;;;25.80;14.10;;;6.30;99.90;;;;;;4970535;28;20413;-84
2024/03/19 02:42:01;;;;;;;26.83;14.75;;;6.60;99.90;;;;;;4978498;28;20077;-84
2024/03/19 02:44:27;;;;;;;26.35;14.38;;;6.40;99.90;;;;;;4978556;28;20042;-84
2024/03/19 02:46:54;;;;;;;25.23;14.55;;;6.40;99.90;;;;;;4978672;28;20400;-83
2024/03/19 02:49:21;;;;;;;23.20;13.90;;;6.40;99.90;;;;;;4968156;28;20043;-83
2024/03/19 02:51:47;;;;;;;25.60;14.15;;;6.40;99.90;;;;;;4978399;28;20039;-84
2024/03/19 02:54:14;;;;;;;27.60;14.80;;;6.40;99.90;;;;;;4978586;28;20484;-83
2024/03/19 02:56:41;;;;;;;29.90;13.95;;;7.20;99.90;;;;;;4978204;28;20053;-84
2024/03/19 02:59:07;;;;;;;25.38;14.30;;;6.40;99.90;;;;;;4978525;28;20042;-83
2024/03/19 03:01:34;;;;;;;25.90;14.65;;;6.80;99.90;;;;;;4994416;28;20122;-83
2024/03/19 03:04:01;;;;;;;29.27;15.93;;;6.50;99.90;;;;;;4977734;28;20038;-83
2024/03/19 03:06:27;;;;;;;28.42;15.23;;;7.10;99.90;;;;;;4965934;28;20043;-83
2024/03/19 03:08:54;;;;;;;27.10;14.88;;;7.20;99.90;;;;;;4977762;28;20500;-83
2024/03/19 03:11:21;;;;;;;27.45;14.68;;;6.60;99.90;;;;;;4976643;28;20051;-83
2024/03/19 03:13:47;;;;;;;30.88;15.50;;;6.60;99.90;;;;;;4993977;28;20129;-83
2024/03/19 03:16:14;;;;;;;28.58;15.68;;;7.50;99.90;;;;;;4982436;28;20043;-83
2024/03/19 03:18:40;;;;;;;33.15;16.25;;;6.60;99.90;;;;;;4977778;28;20126;-84
2024/03/19 03:21:07;;;;;;;29.25;15.70;;;7.30;99.90;;;;;;4974238;29;20040;-84
2024/03/19 03:23:34;;;;;;;29.48;15.05;;;6.60;99.90;;;;;;4969040;28;20046;-84
2024/03/19 03:26:02;;;;;;;29.08;15.85;;;6.70;99.90;;;;;;4993837;28;20050;-83
2024/03/19 03:28:28;;;;;;;31.67;14.45;;;6.70;99.90;;;;;;4977944;28;20492;-83
2024/03/19 03:30:55;;;;;;;30.52;15.88;;;7.30;99.90;;;;;;4977867;28;20038;-83
2024/03/19 03:33:22;;;;;;;32.60;15.77;;;6.70;99.90;;;;;;4982496;28;20484;-84
2024/03/19 03:35:48;;;;;;;29.85;15.63;;;6.60;99.90;;;;;;4993358;28;20092;-84
2024/03/19 03:38:15;;;;;;;31.08;16.63;;;7.30;99.90;;;;;;4977466;28;20047;-83
2024/03/19 03:40:42;;;;;;;30.45;15.30;;;6.90;99.90;;;;;;4961988;29;20047;-83
2024/03/19 03:43:08;;;;;;;36.50;16.35;;;6.70;99.90;;;;;;4988349;28;20488;-83
2024/03/19 03:45:37;;;;;;;29.30;15.48;;;6.70;99.90;;;;;;4974373;29;20110;-84
2024/03/19 03:48:06;;;;;;;31.13;15.98;;;6.70;99.90;;;;;;4977495;28;20042;-84
2024/03/19 03:50:32;;;;;;;38.92;17.67;;;6.70;99.90;;;;;;4977718;28;20548;-84
2024/03/19 03:52:59;;;;;;;33.92;16.40;;;6.70;99.90;;;;;;4966080;28;20174;-83
2024/03/19 03:55:26;;;;;;;31.65;16.50;;;6.70;99.90;;;;;;4982339;28;20043;-83
2024/03/19 03:57:52;;;;;;;32.22;15.88;;;6.70;99.90;;;;;;4976859;28;20133;-84
2024/03/19 04:00:19;;;;;;;32.35;16.50;;;6.80;99.90;;;;;;4977370;28;20094;-83
2024/03/19 04:02:47;;;;;;;28.30;16.08;;;6.80;99.90;;;;;;4961359;28;20043;-84
2024/03/19 04:05:14;;;;;;;28.63;15.85;;;6.80;99.90;;;;;;4985579;28;20035;-83
2024/03/19 04:07:43;;;;;;;33.97;16.65;;;7.80;99.90;;;;;;4981004;29;20428;-84
2024/03/19 04:10:12;;;;;;;32.55;15.38;;;7.30;99.90;;;;;;4994860;28;20039;-83
2024/03/19 04:12:39;;;;;;;32.05;16.67;;;6.80;99.90;;;;;;4977021;28;20038;-83
2024/03/19 04:15:07;;;;;;;35.33;16.92;;;6.80;99.90;;;;;;4976938;28;20043;-83
2024/03/19 04:17:34;;;;;;;33.20;17.83;;;6.90;99.90;;;;;;4964395;29;20492;-83
2024/03/19 04:20:05;;;;;;;35.00;17.30;;;6.80;99.90;;;;;;4969116;29;20039;-84
2024/03/19 04:22:35;;;;;;;31.75;16.23;;;6.90;99.90;;;;;;4961105;28;20077;-83
2024/03/19 04:25:03;;;;;;;33.15;16.58;;;7.50;99.90;;;;;;4977056;28;20134;-83
2024/03/19 04:27:29;;;;;;;35.83;17.70;;;6.90;99.90;;;;;;4974585;28;20038;-84
2024/03/19 04:29:56;;;;;;;30.10;15.95;;;7.00;99.90;;;;;;4970014;29;20098;-83
2024/03/19 04:32:23;;;;;;;31.98;17.52;;;7.00;99.90;;;;;;4974193;28;20042;-83
2024/03/19 04:34:49;;;;;;;33.03;16.60;;;7.00;99.90;;;;;;4972432;29;20118;-83
2024/03/19 04:37:16;;;;;;;32.30;16.42;;;7.00;99.90;;;;;;4973886;28;20042;-84
2024/03/19 04:39:42;;;;;;;33.50;16.25;;;7.00;99.90;;;;;;4964494;29;20042;-83
2024/03/19 04:42:17;;;;;;;32.45;17.65;;;7.00;99.90;;;;;;4967962;28;20070;-84
2024/03/19 04:44:44;;;;;;;29.88;16.45;;;7.80;99.90;;;;;;4987807;28;20066;-84
2024/03/19 04:47:12;;;;;;;30.17;15.65;;;7.00;99.90;;;;;;4967309;28;20504;-84
2024/03/19 04:49:39;;;;;;;28.83;15.98;;;7.10;99.90;;;;;;4963619;28;20054;-84
2024/03/19 04:52:05;;;;;;;31.58;16.30;;;7.10;99.90;;;;;;4974164;28;20038;-83
2024/03/19 04:54:32;;;;;;;33.25;16.48;;;7.10;99.90;;;;;;4958168;28;20496;-83
2024/03/19 04:56:59;;;;;;;32.75;16.33;;;7.10;99.90;;;;;;4976583;28;20114;-84
2024/03/19 04:59:25;;;;;;;34.10;17.25;;;7.10;99.90;;;;;;4972078;28;20047;-83
2024/03/19 05:01:52;;;;;;;33.80;16.42;;;7.10;99.90;;;;;;4956994;29;20050;-83
2024/03/19 05:04:19;;;;;;;33.50;15.48;;;7.10;99.90;;;;;;4975786;28;20039;-83
2024/03/19 05:06:46;;;;;;;32.78;16.42;;;7.10;99.90;;;;;;4963587;28;20042;-83
2024/03/19 05:09:14;;;;;;;34.40;17.05;;;7.10;99.90;;;;;;4975899;28;20050;-83
2024/03/19 05:11:41;;;;;;;31.40;16.23;;;7.10;99.90;;;;;;4975879;28;20105;-83
2024/03/19 05:14:08;;;;;;;35.47;16.58;;;7.10;99.90;;;;;;4969974;29;20075;-83
2024/03/19 05:16:35;;;;;;;31.95;16.90;;;7.60;99.90;;;;;;4971650;28;20496;-83
2024/03/19 05:19:01;;;;;;;34.28;16.25;;;7.20;99.90;;;;;;4964575;28;20130;-84
2024/03/19 05:21:28;;;;;;;30.30;16.65;;;7.20;99.90;;;;;;4968198;29;20492;-83
2024/03/19 05:23:55;;;;;;;30.10;15.75;;;7.20;99.90;;;;;;4961444;29;20043;-83
2024/03/19 05:26:21;;;;;;;31.85;15.75;;;7.20;99.90;;;;;;4975783;28;20126;-83
2024/03/19 05:28:48;;;;;;;32.78;16.75;;;7.20;99.90;;;;;;4965291;29;20530;-83
2024/03/19 05:31:22;;;;;;;31.27;16.45;;;7.20;99.90;;;;;;4975685;28;20057;-83
2024/03/19 05:33:53;;;;;;;36.53;17.83;;;7.30;99.90;;;;;;4971252;29;20074;-84
2024/03/19 05:36:20;;;;;;;35.08;16.70;;;7.30;99.90;;;;;;4975948;28;20049;-84
2024/03/19 05:38:47;;;;;;;33.80;16.77;;;7.30;99.90;;;;;;4975866;28;20039;-83
2024/03/19 05:41:15;;;;;;;31.42;16.08;;;7.30;99.90;;;;;;4963642;29;20082;-84
2024/03/19 05:43:42;;;;;;;33.10;16.67;;;7.50;99.90;;;;;;4973338;28;20092;-84
2024/03/19 05:46:09;;;;;;;34.75;17.73;;;7.80;99.90;;;;;;4974915;28;20070;-83
2024/03/19 05:48:37;;;;;;;33.05;17.48;;;7.60;99.90;;;;;;4972279;28;20077;-83
2024/03/19 05:51:08;;;;;;;32.50;16.10;;;7.30;99.90;;;;;;4968717;29;20489;-84
2024/03/19 05:53:38;;;;;;;35.60;16.15;;;7.60;99.90;;;;;;4973681;29;20039;-83
2024/03/19 05:56:06;;;;;;;31.33;16.52;;;7.30;99.90;;;;;;4969558;28;20050;-84
2024/03/19 05:58:32;;;;;;;33.17;16.77;;;7.30;99.90;;;;;;4974727;28;20039;-83
2024/03/19 06:01:03;;;;;;;38.30;17.50;;;7.30;99.90;;;;;;4988157;28;20053;-84
2024/03/19 06:03:33;;;;;;;32.28;16.92;;;7.30;99.90;;;;;;4964279;28;20046;-83
2024/03/19 06:06:09;;;;;;;33.25;16.85;;;7.30;99.90;;;;;;4971505;28;20039;-84
2024/03/19 06:08:36;;;;;;;;;;;7.30;99.90;;;;;;4970735;29;20059;-84
2024/03/19 06:11:03;;;;;;;31.98;16.63;;;7.40;99.90;;;;;;4965961;28;19926;-84
2024/03/19 06:13:31;;;;;;;36.40;16.88;;;7.40;99.90;;;;;;4974113;28;20045;-84
2024/03/19 06:15:58;;;;;;;37.65;17.05;;;7.40;99.90;;;;;;4987254;28;20035;-83
2024/03/19 06:18:25;;;;;;;37.90;17.83;;;7.40;99.90;;;;;;4970057;28;20034;-83
2024/03/19 06:20:51;;;;;;;36.78;17.83;;;7.40;99.90;;;;;;4970814;28;20054;-84
2024/03/19 06:23:18;;;;;;;40.22;18.67;;;7.40;99.90;;;;;;4964153;28;20047;-84
2024/03/19 06:25:44;;;;;;;37.65;17.42;;;7.90;99.90;;;;;;4986997;28;20050;-84
2024/03/19 06:28:11;;;;;;;34.90;17.95;;;7.70;99.90;;;;;;4988743;28;20401;-83
2024/03/19 06:30:38;;;;;;;34.13;16.85;;;7.50;99.90;;;;;;4974851;28;20043;-84
2024/03/19 06:33:05;;;;;;;35.30;17.02;;;7.50;99.90;;;;;;4971845;29;20057;-83
2024/03/19 06:35:33;;;;;;;35.42;17.80;;;7.50;99.90;;;;;;4969092;29;20051;-83
2024/03/19 06:38:04;;;;;;;35.15;16.80;;;7.60;99.90;;;;;;4972300;28;20039;-83
2024/03/19 06:40:31;;;;;;;34.25;17.13;;;7.50;99.90;;;;;;4968946;28;20039;-84
2024/03/19 06:42:58;;;;;;;32.20;15.88;;;7.80;99.90;;;;;;4971796;29;20055;-83
2024/03/19 06:45:26;;;;;;;35.20;17.17;;;7.60;99.90;;;;;;4958036;29;20035;-83
2024/03/19 06:47:53;;;;;;;34.88;16.98;;;7.60;99.90;;;;;;4964215;29;20412;-83
2024/03/19 06:50:20;;;;;;;33.92;16.02;;;7.60;99.90;;;;;;4971392;29;20043;-83
2024/03/19 06:52:46;;;;;;;38.17;17.92;;;7.60;99.90;;;;;;4973738;28;20113;-84
2024/03/19 06:55:14;;;;;;;38.17;18.05;;;8.00;99.90;;;;;;4983953;28;20558;-84
2024/03/19 06:57:42;;;;;;;32.42;16.30;;;7.80;99.90;;;;;;4968124;28;20053;-83
2024/03/19 07:00:16;;;;;;;34.13;17.05;;;7.80;99.90;;;;;;4965952;28;20066;-84
2024/03/19 07:02:44;;;;;;;42.38;16.92;;;7.80;99.90;;;;;;4968068;29;20043;-84
2024/03/19 07:05:12;;;;;;;37.00;16.15;;;7.80;99.90;;;;;;4961599;29;20143;-83
2024/03/19 07:07:39;;;;;;;34.45;16.25;;;7.90;99.90;;;;;;4966185;28;20125;-84
2024/03/19 07:10:07;;;;;;;32.33;16.70;;;7.90;99.90;;;;;;4966237;28;20365;-84
2024/03/19 07:12:33;;;;;;;31.95;16.38;;;7.90;99.90;;;;;;4959024;29;20093;-84
2024/03/19 07:15:03;;;;;;;34.05;16.25;;;8.20;99.90;;;;;;4962776;28;20407;-84
2024/03/19 07:17:31;;;;;;;31.88;15.77;;;8.00;99.90;;;;;;4971597;29;20039;-84
2024/03/19 07:19:58;;;;;;;36.10;16.60;;;8.50;99.90;;;;;;4972380;28;20067;-84
2024/03/19 07:22:25;;;;;;;35.28;16.38;;;8.10;99.90;;;;;;4974287;28;20400;-84
2024/03/19 07:24:52;;;;;;;30.42;15.85;;;8.20;99.90;;;;;;4974703;28;20047;-84
2024/03/19 07:27:18;;;;;;;34.22;15.88;;;8.20;99.90;;;;;;4975834;28;20492;-84
2024/03/19 07:29:45;;;;;;;31.88;15.60;;;8.80;99.90;;;;;;4985813;28;20035;-84
2024/03/19 07:32:12;;;;;;;33.05;15.60;;;8.70;99.90;;;;;;4977567;28;20396;-84
2024/03/19 07:34:40;;;;;;;34.03;15.77;;;8.30;99.90;;;;;;4974148;29;20047;-83
2024/03/19 07:37:07;;;;;;;31.25;15.98;;;8.40;99.90;;;;;;4981360;29;20046;-83
2024/03/19 07:39:34;;;;;;;32.95;14.70;;;8.70;99.90;;;;;;4973382;29;20043;-84
2024/03/19 07:42:02;;;;;;;37.33;16.55;;;8.50;99.90;;;;;;4968201;28;20043;-84
2024/03/19 07:44:29;;;;;;;31.85;16.05;;;9.10;99.90;;;;;;4959933;28;20040;-84
2024/03/19 07:46:55;;;;;;;34.28;15.57;;;8.70;99.90;;;;;;4977255;28;20041;-84
2024/03/19 07:49:22;;;;;;;33.78;16.17;;;9.00;99.90;;;;;;4983678;28;20043;-84
2024/03/19 07:51:49;;;;;;;30.55;14.95;;;9.00;99.90;;;;;;4964317;28;20160;-84
2024/03/19 07:54:15;;;;;;;36.40;15.98;;;9.30;99.90;;;;;;4985339;28;20129;-84
2024/03/19 07:56:43;;;;;;;28.67;14.73;;;9.60;99.90;;;;;;4974322;28;20489;-84
2024/03/19 07:59:11;;;;;;;32.72;15.27;;;9.30;99.90;;;;;;4964218;28;20046;-84
2024/03/19 08:01:37;;;;;;;29.48;14.95;;;9.30;99.90;;;;;;4964892;29;20097;-83
2024/03/19 08:04:07;;;;;;;30.60;14.95;;;9.30;99.90;;;;;;4976974;28;20130;-84
2024/03/19 08:06:34;;;;;;;33.88;14.93;;;9.30;99.90;;;;;;4977064;28;20389;-84
2024/03/19 08:09:00;;;;;;;28.60;14.13;;;9.30;99.90;;;;;;4993129;28;20063;-84
2024/03/19 08:11:27;;;;;;;26.08;14.05;;;9.80;99.90;;;;;;4977040;28;20190;-84
2024/03/19 08:13:53;;;;;;;26.65;13.38;;;9.40;99.90;;;;;;4971704;29;20039;-84
2024/03/19 08:16:20;;;;;;;25.35;13.32;;;9.50;99.90;;;;;;4970872;28;20389;-84
2024/03/19 08:18:48;;;;;;;30.63;15.32;;;9.60;99.90;;;;;;4965379;28;20038;-84
2024/03/19 08:21:15;;;;;;;27.90;13.07;;;9.70;99.90;;;;;;4980442;28;20051;-84
2024/03/19 08:23:46;;;;;;;29.48;13.38;;;10.10;99.90;;;;;;4967792;28;20861;-84
2024/03/19 08:26:16;;;;;;;28.92;13.10;;;10.00;99.90;;;;;;4971090;28;20026;-84
2024/03/19 08:28:43;;;;;;;24.45;13.07;;;10.00;99.90;;;;;;4977458;28;20035;-84
2024/03/19 08:31:10;;;;;;;25.00;13.63;;;10.70;99.90;;;;;;4962815;28;20452;-84
2024/03/19 08:33:38;;;;;;;25.40;12.82;;;10.30;99.90;;;;;;4972311;28;20043;-83
2024/03/19 08:36:05;;;;;;;25.20;12.80;;;10.40;99.90;;;;;;4986043;28;20038;-84
2024/03/19 08:38:35;;;;;;;28.20;12.02;;;10.50;99.90;;;;;;4976605;28;20420;-85
2024/03/19 08:41:03;;;;;;;27.38;12.63;;;10.70;99.90;;;;;;4979919;28;20045;-85
2024/03/19 08:43:30;;;;;;;23.15;11.68;;;10.50;99.90;;;;;;4974300;28;20527;-85
2024/03/19 08:45:57;;;;;;;25.85;11.32;;;10.60;99.90;;;;;;4967786;28;20039;-84
2024/03/19 08:48:23;;;;;;;25.63;11.65;;;10.80;99.90;;;;;;4963851;28;20473;-85
2024/03/19 08:50:50;;;;;;;22.35;11.43;;;10.80;99.90;;;;;;4966518;28;20047;-85
2024/03/19 08:53:17;;;;;;;22.10;11.98;;;11.10;99.90;;;;;;4966794;28;20428;-86
2024/03/19 08:55:44;;;;;;;20.83;11.68;;;10.70;99.90;;;;;;4967333;28;20043;-86
2024/03/19 08:58:10;;;;;;;26.92;11.88;;;11.10;99.90;;;;;;4964946;28;20050;-85
2024/03/19 09:00:39;;;;;;;24.73;11.90;;;10.80;99.90;;;;;;4963059;28;20050;-85
2024/03/19 09:03:07;;;;;;;24.08;11.40;;;11.10;99.90;;;;;;4967240;28;20045;-85
2024/03/19 09:05:34;;;;;;;57.40;13.63;;;10.80;99.90;;;;;;4971358;28;20039;-85
2024/03/19 09:08:01;;;;;;;21.52;10.57;;;10.80;99.90;;;;;;4985315;28;20047;-85
2024/03/19 09:10:27;;;;;;;21.00;10.93;;;10.80;99.90;;;;;;4980942;28;20433;-85
2024/03/19 09:12:54;;;;;;;21.33;10.73;;;10.80;99.90;;;;;;4969369;28;20563;-85
2024/03/19 09:15:22;;;;;;;25.15;11.32;;;11.00;99.90;;;;;;4961003;29;20058;-85
2024/03/19 09:17:49;;;;;;;23.75;10.63;;;10.80;99.90;;;;;;4967341;28;20074;-85
2024/03/19 09:20:15;;;;;;;23.10;10.10;;;10.90;99.90;;;;;;4974459;28;20046;-85
2024/03/19 09:22:42;;;;;;;20.25;10.63;;;11.30;99.90;;;;;;4976487;28;20492;-86
2024/03/19 09:25:12;;;;;;;20.13;10.00;;;10.90;99.90;;;;;;4992418;28;20039;-85
2024/03/19 09:27:39;;;;;;;18.33;9.82;;;10.90;99.90;;;;;;4976018;28;20126;-85
2024/03/19 09:30:07;;;;;;;21.50;9.40;;;11.00;99.90;;;;;;4976153;28;20050;-85
2024/03/19 09:32:36;;;;;;;22.60;9.45;;;11.00;99.90;;;;;;4970640;28;20468;-85
2024/03/19 09:35:04;;;;;;;18.35;8.85;;;11.10;99.90;;;;;;4980721;28;20473;-86
2024/03/19 09:37:31;;;;;;;20.15;9.02;;;11.20;99.90;;;;;;4972651;29;20039;-85
2024/03/19 09:39:58;;;;;;;16.27;8.80;;;11.40;99.90;;;;;;4975907;28;20039;-85
2024/03/19 09:42:26;;;;;;;15.40;8.30;;;11.20;99.90;;;;;;4975885;28;20042;-85
2024/03/19 09:44:52;;;;;;;15.95;8.10;;;11.20;99.90;;;;;;4975586;28;20039;-85
2024/03/19 09:47:22;;;;;;;18.33;8.27;;;11.20;99.90;;;;;;4983466;28;20046;-84
2024/03/19 09:49:49;;;;;;;17.15;8.00;;;11.30;99.90;;;;;;4969081;28;20507;-85
2024/03/19 09:52:16;;;;;;;19.63;8.93;;;11.40;99.90;;;;;;4967900;28;20035;-85
2024/03/19 09:54:43;;;;;;;20.88;8.13;;;11.50;99.90;;;;;;4966802;28;20041;-85
2024/03/19 09:57:28;;;;;;;15.43;8.40;;;11.50;99.90;;;;;;4987419;28;20133;-85
2024/03/19 09:59:57;;;;;;;55.75;12.38;;;11.60;99.90;;;;;;4966425;28;20070;-85
2024/03/19 10:02:24;;;;;;;19.23;8.55;;;11.70;99.90;;;;;;4986154;28;20042;-84
2024/03/19 10:04:51;;;;;;;17.38;7.97;;;11.80;99.90;;;;;;4975157;28;20043;-84
2024/03/19 10:07:20;;;;;;;16.98;8.02;;;12.10;99.90;;;;;;4962764;28;20062;-84
2024/03/19 10:09:49;;;;;;;14.32;7.15;;;12.20;99.90;;;;;;4974950;28;20046;-84
2024/03/19 10:12:17;;;;;;;15.05;7.28;;;12.30;99.90;;;;;;4970078;28;20045;-84
2024/03/19 10:14:44;;;;;;;15.30;7.28;;;12.30;99.90;;;;;;4970915;28;20467;-83
2024/03/19 10:17:15;;;;;;;12.45;6.75;;;12.40;99.90;;;;;;4975053;28;20043;-84
2024/03/19 10:19:41;;;;;;;16.55;7.05;;;12.40;99.90;;;;;;4968347;29;20077;-84
2024/03/19 10:22:10;;;;;;;14.43;7.10;;;12.50;99.90;;;;;;4965665;28;20063;-85
2024/03/19 10:24:37;;;;;;;11.80;6.35;;;12.60;99.90;;;;;;4959126;28;20042;-85
2024/03/19 10:27:09;;;;;;;10.75;6.25;;;12.60;99.90;;;;;;4965538;29;20039;-84
2024/03/19 10:29:36;;;;;;;13.45;6.80;;;12.70;99.90;;;;;;4962385;28;20489;-85
2024/03/19 10:32:07;;;;;;;12.70;6.50;;;12.90;99.90;;;;;;4962180;28;20035;-84
2024/03/19 10:34:35;;;;;;;10.10;5.78;;;13.00;99.90;;;;;;4968016;28;20045;-85
2024/03/19 10:37:02;;;;;;;12.38;6.10;;;13.00;99.90;;;;;;4964193;28;20050;-85
2024/03/19 10:39:31;;;;;;;11.85;5.68;;;13.00;99.90;;;;;;4970249;29;20047;-85
2024/03/19 10:42:03;;;;;;;11.32;5.65;;;13.10;99.90;;;;;;4989658;28;20069;-85
2024/03/19 10:44:35;;;;;;;11.48;5.82;;;13.20;99.90;;;;;;4982017;28;20385;-85
2024/03/19 10:47:02;;;;;;;9.68;4.93;;;13.20;99.90;;;;;;4969048;28;20053;-85
2024/03/19 10:49:30;;;;;;;10.57;4.70;;;13.20;99.90;;;;;;4965199;28;20039;-85
2024/03/19 10:52:08;;;;;;;8.82;4.65;;;13.30;99.90;;;;;;4987566;28;20114;-84
2024/03/19 10:54:39;;;;;;;11.57;4.97;;;13.40;99.90;;;;;;4969243;28;20178;-84
2024/03/19 10:57:06;;;;;;;7.97;4.40;;;13.40;99.90;;;;;;4976480;28;20128;-84
2024/03/19 10:59:40;;;;;;;9.13;4.00;;;13.40;99.90;;;;;;4970602;28;20043;-84
2024/03/19 11:02:07;;;;;;;9.48;4.60;;;13.40;99.90;;;;;;4976397;28;20420;-84
2024/03/19 11:04:36;;;;;;;9.52;4.80;;;13.70;99.90;;;;;;4977608;28;20039;-84
2024/03/19 11:07:03;;;;;;;9.43;4.40;;;13.50;99.90;;;;;;4967882;28;20126;-84
2024/03/19 11:09:30;;;;;;;10.35;4.30;;;13.50;99.90;;;;;;4962314;28;20154;-84
2024/03/19 11:12:04;;;;;;;10.73;4.18;;;13.60;99.90;;;;;;4970517;28;20891;-84
2024/03/19 11:14:32;;;;;;;9.35;4.20;;;13.50;99.90;;;;;;4981834;28;20043;-84
2024/03/19 11:17:03;;;;;;;7.63;3.70;;;13.50;99.90;;;;;;4964843;28;20039;-84
2024/03/19 11:19:30;;;;;;;9.88;4.07;;;13.40;99.90;;;;;;4968789;28;20122;-84
2024/03/19 11:21:58;;;;;;;6.72;3.50;;;13.40;99.90;;;;;;4961749;28;20556;-84
2024/03/19 11:24:28;;;;;;;10.30;4.03;;;13.40;99.90;;;;;;4967951;29;20405;-83
2024/03/19 11:26:59;;;;;;;7.53;4.03;;;13.40;99.90;;;;;;4989284;28;20097;-84
2024/03/19 11:29:33;;;;;;;8.95;3.85;;;13.40;99.90;;;;;;4985527;28;20555;-84
2024/03/19 11:32:01;;;;;;;6.55;3.35;;;13.60;99.90;;;;;;4967361;28;20098;-90
2024/03/19 11:34:28;;;;;;;7.20;3.40;;;13.70;99.90;;;;;;4977659;28;20039;-83
2024/03/19 11:36:56;;;;;;;8.02;3.83;;;13.70;99.90;;;;;;4969867;28;20098;-83
2024/03/19 11:39:23;;;;;;;8.48;3.67;;;13.70;99.90;;;;;;4981591;28;20051;-83
2024/03/19 11:41:49;;;;;;;5.72;2.88;;;13.70;99.90;;;;;;4965574;28;20049;-83
2024/03/19 11:44:19;;;;;;;7.47;3.10;;;13.70;99.90;;;;;;4985511;28;20060;-83
2024/03/19 11:46:50;;;;;;;11.02;3.28;;;13.60;99.90;;;;;;4986971;28;20046;-82
2024/03/19 11:49:27;;;;;;;7.80;3.10;;;13.60;99.90;;;;;;4965675;28;20047;-82
2024/03/19 11:51:58;;;;;;;8.05;3.45;;;13.60;99.90;;;;;;4968702;28;20038;-83
2024/03/19 11:54:29;;;;;;;7.40;3.28;;;13.70;99.90;;;;;;4972698;28;20085;-83
2024/03/19 11:56:57;;;;;;;7.57;3.10;;;13.60;99.90;;;;;;4966989;28;20051;-83
2024/03/19 11:59:28;;;;;;;10.07;3.15;;;13.70;99.90;;;;;;4958045;29;20047;-83
2024/03/19 12:01:56;;;;;;;6.13;2.80;;;13.90;99.90;;;;;;4965764;28;20081;-82
2024/03/19 12:04:27;;;;;;;5.90;2.88;;;14.10;99.90;;;;;;4971822;28;20453;-83
2024/03/19 12:06:54;;;;;;;4.95;2.75;;;14.30;99.90;;;;;;4985681;28;20092;-82
2024/03/19 12:09:23;;;;;;;5.85;2.80;;;14.30;99.90;;;;;;4965514;28;20563;-82
2024/03/19 12:11:50;;;;;;;6.22;2.50;;;14.40;99.90;;;;;;4968097;28;20133;-83
2024/03/19 12:14:21;;;;;;;6.88;2.70;;;14.50;99.90;;;;;;4983533;28;20182;-83
2024/03/19 12:16:49;;;;;;;7.20;2.40;;;14.60;99.90;;;;;;4959977;28;20046;-83
2024/03/19 12:19:17;;;;;;;4.32;2.30;;;14.70;99.90;;;;;;4961268;28;20042;-83
2024/03/19 12:21:46;;;;;;;5.47;2.22;;;14.80;99.90;;;;;;4964194;28;20046;-83
2024/03/19 12:24:14;;;;;;;5.25;2.28;;;14.70;99.90;;;;;;4967112;28;20034;-82
2024/03/19 12:26:43;;;;;;;10.15;2.70;;;14.70;99.90;;;;;;4968018;28;20520;-82
2024/03/19 12:29:13;;;;;;;8.20;2.40;;;14.70;99.90;;;;;;4967449;28;20122;-82
2024/03/19 12:34:37;;;;;;;4.55;2.08;;;14.70;99.90;;;;;;4980924;28;20070;-83
2024/03/19 12:37:13;;;;;;;8.10;2.60;;;14.60;99.90;;;;;;4967862;28;20515;-83
2024/03/19 12:39:44;;;;;;;8.85;2.47;;;14.50;99.90;;;;;;4985900;29;20091;-82
2024/03/19 12:42:14;;;;;;;4.00;2.10;;;14.60;99.90;;;;;;4965839;29;20122;-82